Terminal Aerodrome Forecast
Issued by NWS Riverton, WY

Home | Current Version | Previous Version | Text Only | Print | Product List | Glossary On
Versions: 1 2 3 4 5 6 7 8 9 10 11 12 13 14 15 16 17 18 19 20 21 22 23 24 25
000
FTUS45 KRIW 192300
TAFRIW
TAF
KRIW 192320Z 2000/2024 VRB04KT 6SM BR FEW120 BKN200
     FM200300 VRB04KT 2SM BR BKN003
     FM200400 VRB04KT 1/4SM FZFG VV001
     FM201100 VRB03KT 1/2SM FG VV001
     FM201300 VRB04KT 4SM BR BKN001
     FM201500 21005KT P6SM VCFG SCT002 BKN110
     FM201800 24006KT P6SM SCT100 SCT200=

USA.gov is the U.S. government's official web portal to all federal, state and local government web resources and services.